sensor_id;sensor_type;location;lat;lon;timestamp;temperature;humidity
2387;DHT22;49473;50.772;8.768;2023-06-22T00:02:16;19.20;99.90
2387;DHT22;49473;50.772;8.768;2023-06-22T00:04:43;19.10;99.90
2387;DHT22;49473;50.772;8.768;2023-06-22T00:07:10;19.10;99.90
2387;DHT22;49473;50.772;8.768;2023-06-22T00:09:37;19.10;99.90
2387;DHT22;49473;50.772;8.768;2023-06-22T00:12:06;19.20;99.90
2387;DHT22;49473;50.772;8.768;2023-06-22T00:14:33;19.20;99.90
2387;DHT22;49473;50.772;8.768;2023-06-22T00:16:59;19.20;99.90
2387;DHT22;49473;50.772;8.768;2023-06-22T00:19:26;19.20;99.90
2387;DHT22;49473;50.772;8.768;2023-06-22T00:21:53;19.20;99.90
2387;DHT22;49473;50.772;8.768;2023-06-22T00:24:20;19.10;99.90
2387;DHT22;49473;50.772;8.768;2023-06-22T00:26:47;19.00;99.90
2387;DHT22;49473;50.772;8.768;2023-06-22T00:29:16;18.90;99.90
2387;DHT22;49473;50.772;8.768;2023-06-22T00:31:44;18.90;99.90
2387;DHT22;49473;50.772;8.768;2023-06-22T00:34:11;18.90;99.90
2387;DHT22;49473;50.772;8.768;2023-06-22T00:36:37;18.90;99.90
2387;DHT22;49473;50.772;8.768;2023-06-22T00:39:06;19.00;99.90
2387;DHT22;49473;50.772;8.768;2023-06-22T00:41:34;19.00;99.90
2387;DHT22;49473;50.772;8.768;2023-06-22T00:44:00;19.10;99.90
2387;DHT22;49473;50.772;8.768;2023-06-22T00:46:29;19.10;99.90
2387;DHT22;49473;50.772;8.768;2023-06-22T00:48:55;19.20;99.90
2387;DHT22;49473;50.772;8.768;2023-06-22T00:51:23;19.30;99.90
2387;DHT22;49473;50.772;8.768;2023-06-22T00:53:50;19.40;99.90
2387;DHT22;49473;50.772;8.768;2023-06-22T00:56:17;19.50;99.90
2387;DHT22;49473;50.772;8.768;2023-06-22T00:58:50;19.50;99.90
2387;DHT22;49473;50.772;8.768;2023-06-22T01:01:18;19.60;99.90
2387;DHT22;49473;50.772;8.768;2023-06-22T01:03:49;19.60;99.90
2387;DHT22;49473;50.772;8.768;2023-06-22T01:06:23;19.70;99.90
2387;DHT22;49473;50.772;8.768;2023-06-22T01:09:00;19.70;99.90
2387;DHT22;49473;50.772;8.768;2023-06-22T01:11:35;19.80;99.90
2387;DHT22;49473;50.772;8.768;2023-06-22T01:14:06;19.80;99.90
2387;DHT22;49473;50.772;8.768;2023-06-22T01:16:35;19.80;99.90
2387;DHT22;49473;50.772;8.768;2023-06-22T01:19:26;19.80;99.90
2387;DHT22;49473;50.772;8.768;2023-06-22T01:21:56;19.70;99.90
2387;DHT22;49473;50.772;8.768;2023-06-22T01:24:26;19.60;99.90
2387;DHT22;49473;50.772;8.768;2023-06-22T01:27:00;19.50;99.90
2387;DHT22;49473;50.772;8.768;2023-06-22T01:29:33;19.40;99.90
2387;DHT22;49473;50.772;8.768;2023-06-22T01:32:03;19.50;99.90
2387;DHT22;49473;50.772;8.768;2023-06-22T01:34:31;19.50;99.90
2387;DHT22;49473;50.772;8.768;2023-06-22T01:36:59;19.50;99.90
2387;DHT22;49473;50.772;8.768;2023-06-22T01:39:26;19.40;99.90
2387;DHT22;49473;50.772;8.768;2023-06-22T01:41:53;19.20;99.90
2387;DHT22;49473;50.772;8.768;2023-06-22T01:44:21;19.20;99.90
2387;DHT22;49473;50.772;8.768;2023-06-22T01:46:49;19.10;99.90
2387;DHT22;49473;50.772;8.768;2023-06-22T01:49:16;19.10;99.90
2387;DHT22;49473;50.772;8.768;2023-06-22T01:51:43;19.00;99.90
2387;DHT22;49473;50.772;8.768;2023-06-22T01:54:10;19.10;99.90
2387;DHT22;49473;50.772;8.768;2023-06-22T01:56:36;19.20;99.90
2387;DHT22;49473;50.772;8.768;2023-06-22T01:59:09;19.20;99.90
2387;DHT22;49473;50.772;8.768;2023-06-22T02:01:42;19.10;99.90
2387;DHT22;49473;50.772;8.768;2023-06-22T02:04:13;19.00;99.90
2387;DHT22;49473;50.772;8.768;2023-06-22T02:06:45;18.90;99.90
2387;DHT22;49473;50.772;8.768;2023-06-22T02:09:16;18.80;99.90
2387;DHT22;49473;50.772;8.768;2023-06-22T02:11:45;18.80;99.90
2387;DHT22;49473;50.772;8.768;2023-06-22T02:14:13;18.80;99.90
2387;DHT22;49473;50.772;8.768;2023-06-22T02:16:40;18.80;99.90
2387;DHT22;49473;50.772;8.768;2023-06-22T02:19:08;18.70;99.90
2387;DHT22;49473;50.772;8.768;2023-06-22T02:21:36;18.70;99.90
2387;DHT22;49473;50.772;8.768;2023-06-22T02:24:04;18.70;99.90
2387;DHT22;49473;50.772;8.768;2023-06-22T02:26:31;18.70;99.90
2387;DHT22;49473;50.772;8.768;2023-06-22T02:28:59;18.70;99.90
2387;DHT22;49473;50.772;8.768;2023-06-22T02:31:26;18.70;99.90
2387;DHT22;49473;50.772;8.768;2023-06-22T02:33:56;18.70;99.90
2387;DHT22;49473;50.772;8.768;2023-06-22T02:36:22;18.80;99.90
2387;DHT22;49473;50.772;8.768;2023-06-22T02:38:51;18.90;99.90
2387;DHT22;49473;50.772;8.768;2023-06-22T02:41:18;19.00;99.90
2387;DHT22;49473;50.772;8.768;2023-06-22T02:43:45;19.00;99.90
2387;DHT22;49473;50.772;8.768;2023-06-22T02:46:13;19.10;99.90
2387;DHT22;49473;50.772;8.768;2023-06-22T02:48:40;19.00;99.90
2387;DHT22;49473;50.772;8.768;2023-06-22T02:51:07;19.00;99.90
2387;DHT22;49473;50.772;8.768;2023-06-22T02:53:34;19.00;99.90
2387;DHT22;49473;50.772;8.768;2023-06-22T02:56:03;19.00;99.90
2387;DHT22;49473;50.772;8.768;2023-06-22T02:58:31;19.00;99.90
2387;DHT22;49473;50.772;8.768;2023-06-22T03:00:58;19.00;99.90
2387;DHT22;49473;50.772;8.768;2023-06-22T03:03:30;18.90;99.90
2387;DHT22;49473;50.772;8.768;2023-06-22T03:05:56;18.80;99.90
2387;DHT22;49473;50.772;8.768;2023-06-22T03:08:23;18.90;99.90
2387;DHT22;49473;50.772;8.768;2023-06-22T03:10:50;18.80;99.90
2387;DHT22;49473;50.772;8.768;2023-06-22T03:13:18;18.80;99.90
2387;DHT22;49473;50.772;8.768;2023-06-22T03:15:44;18.80;99.90
2387;DHT22;49473;50.772;8.768;2023-06-22T03:18:12;18.80;99.90
2387;DHT22;49473;50.772;8.768;2023-06-22T03:20:38;18.70;99.90
2387;DHT22;49473;50.772;8.768;2023-06-22T03:23:05;18.70;99.90
2387;DHT22;49473;50.772;8.768;2023-06-22T03:25:32;18.80;99.90
2387;DHT22;49473;50.772;8.768;2023-06-22T03:28:00;18.90;99.90
2387;DHT22;49473;50.772;8.768;2023-06-22T03:30:28;19.00;99.90
2387;DHT22;49473;50.772;8.768;2023-06-22T03:32:55;19.00;99.90
2387;DHT22;49473;50.772;8.768;2023-06-22T03:35:21;19.00;99.90
2387;DHT22;49473;50.772;8.768;2023-06-22T03:37:48;18.90;99.90
2387;DHT22;49473;50.772;8.768;2023-06-22T03:40:15;18.90;99.90
2387;DHT22;49473;50.772;8.768;2023-06-22T03:42:42;19.00;99.90
2387;DHT22;49473;50.772;8.768;2023-06-22T03:45:09;19.10;99.90
2387;DHT22;49473;50.772;8.768;2023-06-22T03:47:38;19.10;99.90
2387;DHT22;49473;50.772;8.768;2023-06-22T03:50:06;19.20;99.90
2387;DHT22;49473;50.772;8.768;2023-06-22T03:52:32;19.30;99.90
2387;DHT22;49473;50.772;8.768;2023-06-22T03:54:59;19.30;99.90
2387;DHT22;49473;50.772;8.768;2023-06-22T03:57:26;19.30;99.90
2387;DHT22;49473;50.772;8.768;2023-06-22T03:59:56;19.30;99.90
2387;DHT22;49473;50.772;8.768;2023-06-22T04:02:23;19.40;99.90
2387;DHT22;49473;50.772;8.768;2023-06-22T04:04:51;19.40;99.90
2387;DHT22;49473;50.772;8.768;2023-06-22T04:07:17;19.50;99.90
2387;DHT22;49473;50.772;8.768;2023-06-22T04:09:44;19.50;99.90
2387;DHT22;49473;50.772;8.768;2023-06-22T04:12:11;19.50;99.90
2387;DHT22;49473;50.772;8.768;2023-06-22T04:14:37;19.50;99.90
2387;DHT22;49473;50.772;8.768;2023-06-22T04:17:05;19.60;99.90
2387;DHT22;49473;50.772;8.768;2023-06-22T04:19:31;19.60;99.90
2387;DHT22;49473;50.772;8.768;2023-06-22T04:21:59;19.70;99.90
2387;DHT22;49473;50.772;8.768;2023-06-22T04:24:26;19.70;99.90
2387;DHT22;49473;50.772;8.768;2023-06-22T04:26:53;19.80;99.90
2387;DHT22;49473;50.772;8.768;2023-06-22T04:29:21;19.80;99.90
2387;DHT22;49473;50.772;8.768;2023-06-22T04:31:55;19.80;99.90
2387;DHT22;49473;50.772;8.768;2023-06-22T04:34:24;19.80;99.90
2387;DHT22;49473;50.772;8.768;2023-06-22T04:36:51;19.90;99.90
2387;DHT22;49473;50.772;8.768;2023-06-22T04:39:20;20.00;99.90
2387;DHT22;49473;50.772;8.768;2023-06-22T04:41:47;20.10;99.90
2387;DHT22;49473;50.772;8.768;2023-06-22T04:44:15;20.10;99.90
2387;DHT22;49473;50.772;8.768;2023-06-22T04:46:49;20.00;99.90
2387;DHT22;49473;50.772;8.768;2023-06-22T04:49:19;20.10;99.90
2387;DHT22;49473;50.772;8.768;2023-06-22T04:51:47;20.20;99.90
2387;DHT22;49473;50.772;8.768;2023-06-22T04:54:14;20.10;99.90
2387;DHT22;49473;50.772;8.768;2023-06-22T04:56:42;20.00;99.90
2387;DHT22;49473;50.772;8.768;2023-06-22T04:59:12;19.90;99.90
2387;DHT22;49473;50.772;8.768;2023-06-22T05:01:40;20.00;99.90
2387;DHT22;49473;50.772;8.768;2023-06-22T05:04:07;20.20;99.90
2387;DHT22;49473;50.772;8.768;2023-06-22T05:06:34;20.30;99.90
2387;DHT22;49473;50.772;8.768;2023-06-22T05:09:01;20.50;99.90
2387;DHT22;49473;50.772;8.768;2023-06-22T05:11:28;20.60;99.90
2387;DHT22;49473;50.772;8.768;2023-06-22T05:13:57;20.70;99.90
2387;DHT22;49473;50.772;8.768;2023-06-22T05:16:24;20.80;99.90
2387;DHT22;49473;50.772;8.768;2023-06-22T05:18:54;20.90;99.90
2387;DHT22;49473;50.772;8.768;2023-06-22T05:21:23;21.10;99.90
2387;DHT22;49473;50.772;8.768;2023-06-22T05:23:50;21.20;99.90
2387;DHT22;49473;50.772;8.768;2023-06-22T05:26:17;21.30;99.90
2387;DHT22;49473;50.772;8.768;2023-06-22T05:28:44;21.30;99.90
2387;DHT22;49473;50.772;8.768;2023-06-22T05:31:13;21.40;99.90
2387;DHT22;49473;50.772;8.768;2023-06-22T05:33:40;21.40;99.90
2387;DHT22;49473;50.772;8.768;2023-06-22T05:36:07;21.50;99.90
2387;DHT22;49473;50.772;8.768;2023-06-22T05:38:34;21.60;99.90
2387;DHT22;49473;50.772;8.768;2023-06-22T05:41:01;21.60;99.90
2387;DHT22;49473;50.772;8.768;2023-06-22T05:43:28;21.60;99.90
2387;DHT22;49473;50.772;8.768;2023-06-22T05:45:55;21.70;99.90
2387;DHT22;49473;50.772;8.768;2023-06-22T05:48:23;21.50;99.90
2387;DHT22;49473;50.772;8.768;2023-06-22T05:50:50;21.40;99.90
2387;DHT22;49473;50.772;8.768;2023-06-22T05:53:16;21.60;99.90
2387;DHT22;49473;50.772;8.768;2023-06-22T05:55:43;21.50;99.90
2387;DHT22;49473;50.772;8.768;2023-06-22T05:58:10;21.40;99.90
2387;DHT22;49473;50.772;8.768;2023-06-22T06:00:38;21.30;99.90
2387;DHT22;49473;50.772;8.768;2023-06-22T06:03:06;21.60;99.90
2387;DHT22;49473;50.772;8.768;2023-06-22T06:05:34;21.90;99.90
2387;DHT22;49473;50.772;8.768;2023-06-22T06:08:02;22.20;99.90
2387;DHT22;49473;50.772;8.768;2023-06-22T06:10:30;22.60;99.90
2387;DHT22;49473;50.772;8.768;2023-06-22T06:12:57;22.90;99.90
2387;DHT22;49473;50.772;8.768;2023-06-22T06:15:24;23.30;99.90
2387;DHT22;49473;50.772;8.768;2023-06-22T06:17:52;23.60;99.90
2387;DHT22;49473;50.772;8.768;2023-06-22T06:20:20;24.00;99.90
2387;DHT22;49473;50.772;8.768;2023-06-22T06:22:48;24.40;99.90
2387;DHT22;49473;50.772;8.768;2023-06-22T06:25:15;24.20;99.90
2387;DHT22;49473;50.772;8.768;2023-06-22T06:27:43;24.40;99.90
2387;DHT22;49473;50.772;8.768;2023-06-22T06:30:11;24.40;99.90
2387;DHT22;49473;50.772;8.768;2023-06-22T06:32:38;24.70;99.90
2387;DHT22;49473;50.772;8.768;2023-06-22T06:35:06;25.10;99.90
2387;DHT22;49473;50.772;8.768;2023-06-22T06:37:35;25.60;99.90
2387;DHT22;49473;50.772;8.768;2023-06-22T06:40:04;26.00;99.90
2387;DHT22;49473;50.772;8.768;2023-06-22T06:42:32;26.10;99.90
2387;DHT22;49473;50.772;8.768;2023-06-22T06:44:59;26.30;99.90
2387;DHT22;49473;50.772;8.768;2023-06-22T06:47:25;26.50;99.90
2387;DHT22;49473;50.772;8.768;2023-06-22T06:49:52;26.50;99.90
2387;DHT22;49473;50.772;8.768;2023-06-22T06:52:19;26.80;99.90
2387;DHT22;49473;50.772;8.768;2023-06-22T06:54:46;26.50;99.90
2387;DHT22;49473;50.772;8.768;2023-06-22T06:57:14;26.30;99.90
2387;DHT22;49473;50.772;8.768;2023-06-22T06:59:40;26.50;99.90
2387;DHT22;49473;50.772;8.768;2023-06-22T07:02:08;26.20;99.90
2387;DHT22;49473;50.772;8.768;2023-06-22T07:04:34;26.40;99.90
2387;DHT22;49473;50.772;8.768;2023-06-22T07:07:02;26.40;99.90
2387;DHT22;49473;50.772;8.768;2023-06-22T07:09:28;26.80;99.90
2387;DHT22;49473;50.772;8.768;2023-06-22T07:11:55;27.30;99.90
2387;DHT22;49473;50.772;8.768;2023-06-22T07:14:23;27.40;99.90
2387;DHT22;49473;50.772;8.768;2023-06-22T07:16:50;26.80;99.90
2387;DHT22;49473;50.772;8.768;2023-06-22T07:19:24;26.80;99.90
2387;DHT22;49473;50.772;8.768;2023-06-22T07:21:51;26.90;99.90
2387;DHT22;49473;50.772;8.768;2023-06-22T07:24:17;27.20;99.90
2387;DHT22;49473;50.772;8.768;2023-06-22T07:26:45;27.80;99.90
2387;DHT22;49473;50.772;8.768;2023-06-22T07:29:12;28.10;99.90
2387;DHT22;49473;50.772;8.768;2023-06-22T07:31:40;29.00;99.90
2387;DHT22;49473;50.772;8.768;2023-06-22T07:34:06;29.50;99.90
2387;DHT22;49473;50.772;8.768;2023-06-22T07:36:33;28.90;99.90
2387;DHT22;49473;50.772;8.768;2023-06-22T07:39:01;28.70;99.90
2387;DHT22;49473;50.772;8.768;2023-06-22T07:41:28;28.70;99.90
2387;DHT22;49473;50.772;8.768;2023-06-22T07:43:55;28.60;99.90
2387;DHT22;49473;50.772;8.768;2023-06-22T07:46:22;28.60;99.90
2387;DHT22;49473;50.772;8.768;2023-06-22T07:48:50;28.90;99.90
2387;DHT22;49473;50.772;8.768;2023-06-22T07:51:16;29.50;99.90
2387;DHT22;49473;50.772;8.768;2023-06-22T07:53:44;29.80;99.90
2387;DHT22;49473;50.772;8.768;2023-06-22T07:56:11;30.20;99.90
2387;DHT22;49473;50.772;8.768;2023-06-22T07:58:37;30.70;99.90
2387;DHT22;49473;50.772;8.768;2023-06-22T08:01:04;30.80;99.90
2387;DHT22;49473;50.772;8.768;2023-06-22T08:03:31;30.50;99.90
2387;DHT22;49473;50.772;8.768;2023-06-22T08:05:59;30.30;99.90
2387;DHT22;49473;50.772;8.768;2023-06-22T08:08:26;30.20;99.90
2387;DHT22;49473;50.772;8.768;2023-06-22T08:10:53;30.60;99.90
2387;DHT22;49473;50.772;8.768;2023-06-22T08:13:19;30.60;99.90
2387;DHT22;49473;50.772;8.768;2023-06-22T08:15:46;30.70;99.90
2387;DHT22;49473;50.772;8.768;2023-06-22T08:18:13;31.10;99.90
2387;DHT22;49473;50.772;8.768;2023-06-22T08:20:40;30.70;99.90
2387;DHT22;49473;50.772;8.768;2023-06-22T08:23:08;30.30;99.90
2387;DHT22;49473;50.772;8.768;2023-06-22T08:25:35;30.10;99.90
2387;DHT22;49473;50.772;8.768;2023-06-22T08:28:02;30.40;99.90
2387;DHT22;49473;50.772;8.768;2023-06-22T08:30:29;31.20;99.90
2387;DHT22;49473;50.772;8.768;2023-06-22T08:32:56;32.50;99.90
2387;DHT22;49473;50.772;8.768;2023-06-22T08:35:23;33.00;99.90
2387;DHT22;49473;50.772;8.768;2023-06-22T08:37:50;32.40;99.90
2387;DHT22;49473;50.772;8.768;2023-06-22T08:40:19;31.20;99.90
2387;DHT22;49473;50.772;8.768;2023-06-22T08:42:47;31.10;99.90
2387;DHT22;49473;50.772;8.768;2023-06-22T08:45:14;31.50;99.90
2387;DHT22;49473;50.772;8.768;2023-06-22T08:47:41;32.40;99.90
2387;DHT22;49473;50.772;8.768;2023-06-22T08:50:09;32.00;99.90
2387;DHT22;49473;50.772;8.768;2023-06-22T08:52:36;31.10;99.90
2387;DHT22;49473;50.772;8.768;2023-06-22T08:55:03;30.00;99.90
2387;DHT22;49473;50.772;8.768;2023-06-22T08:57:32;30.00;99.90
2387;DHT22;49473;50.772;8.768;2023-06-22T08:59:59;29.90;99.90
2387;DHT22;49473;50.772;8.768;2023-06-22T09:02:25;29.50;99.90
2387;DHT22;49473;50.772;8.768;2023-06-22T09:04:56;29.70;99.90
2387;DHT22;49473;50.772;8.768;2023-06-22T09:07:23;30.90;99.90
2387;DHT22;49473;50.772;8.768;2023-06-22T09:09:50;30.80;99.90
2387;DHT22;49473;50.772;8.768;2023-06-22T09:12:17;30.60;99.90
2387;DHT22;49473;50.772;8.768;2023-06-22T09:14:46;31.20;99.90
2387;DHT22;49473;50.772;8.768;2023-06-22T09:17:13;30.70;99.90
2387;DHT22;49473;50.772;8.768;2023-06-22T09:19:40;30.90;99.90
2387;DHT22;49473;50.772;8.768;2023-06-22T09:22:07;30.70;99.90
2387;DHT22;49473;50.772;8.768;2023-06-22T09:24:33;30.30;99.90
2387;DHT22;49473;50.772;8.768;2023-06-22T09:27:00;29.30;99.90
2387;DHT22;49473;50.772;8.768;2023-06-22T09:29:27;29.40;99.90
2387;DHT22;49473;50.772;8.768;2023-06-22T09:31:55;29.90;99.90
2387;DHT22;49473;50.772;8.768;2023-06-22T09:34:22;31.00;99.90
2387;DHT22;49473;50.772;8.768;2023-06-22T09:36:48;31.00;99.90
2387;DHT22;49473;50.772;8.768;2023-06-22T09:39:15;30.70;99.90
2387;DHT22;49473;50.772;8.768;2023-06-22T09:41:42;30.30;99.90
2387;DHT22;49473;50.772;8.768;2023-06-22T09:44:08;30.40;99.90
2387;DHT22;49473;50.772;8.768;2023-06-22T09:46:35;31.70;99.90
2387;DHT22;49473;50.772;8.768;2023-06-22T09:49:03;32.40;99.90
2387;DHT22;49473;50.772;8.768;2023-06-22T09:51:30;33.00;99.90
2387;DHT22;49473;50.772;8.768;2023-06-22T09:53:57;33.20;99.90
2387;DHT22;49473;50.772;8.768;2023-06-22T09:56:23;33.10;99.90
2387;DHT22;49473;50.772;8.768;2023-06-22T09:58:50;32.20;99.90
2387;DHT22;49473;50.772;8.768;2023-06-22T10:01:18;32.60;99.90
2387;DHT22;49473;50.772;8.768;2023-06-22T10:03:46;33.20;99.90
2387;DHT22;49473;50.772;8.768;2023-06-22T10:06:14;33.30;99.90
2387;DHT22;49473;50.772;8.768;2023-06-22T10:08:41;33.00;99.90
2387;DHT22;49473;50.772;8.768;2023-06-22T10:11:08;33.00;99.90
2387;DHT22;49473;50.772;8.768;2023-06-22T10:13:34;33.10;99.90
2387;DHT22;49473;50.772;8.768;2023-06-22T10:16:01;33.30;99.90
2387;DHT22;49473;50.772;8.768;2023-06-22T10:18:28;32.90;99.90
2387;DHT22;49473;50.772;8.768;2023-06-22T10:20:56;31.30;99.90
2387;DHT22;49473;50.772;8.768;2023-06-22T10:23:24;31.10;99.90
2387;DHT22;49473;50.772;8.768;2023-06-22T10:25:50;31.10;99.90
2387;DHT22;49473;50.772;8.768;2023-06-22T10:28:17;31.50;99.90
2387;DHT22;49473;50.772;8.768;2023-06-22T10:30:44;32.50;99.90
2387;DHT22;49473;50.772;8.768;2023-06-22T10:33:11;32.50;99.90
2387;DHT22;49473;50.772;8.768;2023-06-22T10:35:39;32.50;99.90
2387;DHT22;49473;50.772;8.768;2023-06-22T10:38:08;32.00;99.90
2387;DHT22;49473;50.772;8.768;2023-06-22T10:40:36;31.50;99.90
2387;DHT22;49473;50.772;8.768;2023-06-22T10:43:04;31.40;99.90
2387;DHT22;49473;50.772;8.768;2023-06-22T10:45:31;30.80;99.90
2387;DHT22;49473;50.772;8.768;2023-06-22T10:47:58;30.00;99.90
2387;DHT22;49473;50.772;8.768;2023-06-22T10:50:25;29.70;99.90
2387;DHT22;49473;50.772;8.768;2023-06-22T10:52:52;30.10;99.90
2387;DHT22;49473;50.772;8.768;2023-06-22T10:55:18;30.30;99.90
2387;DHT22;49473;50.772;8.768;2023-06-22T10:57:46;30.60;99.90
2387;DHT22;49473;50.772;8.768;2023-06-22T11:00:14;31.10;99.90
2387;DHT22;49473;50.772;8.768;2023-06-22T11:02:41;31.00;99.90
2387;DHT22;49473;50.772;8.768;2023-06-22T11:05:08;31.30;99.90
2387;DHT22;49473;50.772;8.768;2023-06-22T11:07:35;31.80;99.90
2387;DHT22;49473;50.772;8.768;2023-06-22T11:10:02;32.20;99.90
2387;DHT22;49473;50.772;8.768;2023-06-22T11:12:28;32.20;99.90
2387;DHT22;49473;50.772;8.768;2023-06-22T11:14:56;31.80;99.90
2387;DHT22;49473;50.772;8.768;2023-06-22T11:17:23;31.20;99.90
2387;DHT22;49473;50.772;8.768;2023-06-22T11:19:50;31.60;99.90
2387;DHT22;49473;50.772;8.768;2023-06-22T11:22:17;31.80;99.90
2387;DHT22;49473;50.772;8.768;2023-06-22T11:24:44;32.70;99.90
2387;DHT22;49473;50.772;8.768;2023-06-22T11:27:10;33.20;99.90
2387;DHT22;49473;50.772;8.768;2023-06-22T11:29:37;34.90;99.90
2387;DHT22;49473;50.772;8.768;2023-06-22T11:32:07;36.30;99.90
2387;DHT22;49473;50.772;8.768;2023-06-22T11:34:34;36.70;99.90
2387;DHT22;49473;50.772;8.768;2023-06-22T11:37:01;36.50;99.90
2387;DHT22;49473;50.772;8.768;2023-06-22T11:39:27;36.40;99.90
2387;DHT22;49473;50.772;8.768;2023-06-22T11:41:54;35.60;99.90
2387;DHT22;49473;50.772;8.768;2023-06-22T11:44:21;33.80;99.90
2387;DHT22;49473;50.772;8.768;2023-06-22T11:46:47;34.00;99.90
2387;DHT22;49473;50.772;8.768;2023-06-22T11:49:15;33.50;99.90
2387;DHT22;49473;50.772;8.768;2023-06-22T11:51:42;33.70;99.90
2387;DHT22;49473;50.772;8.768;2023-06-22T11:54:09;34.30;99.90
2387;DHT22;49473;50.772;8.768;2023-06-22T11:56:35;35.80;99.90
2387;DHT22;49473;50.772;8.768;2023-06-22T11:59:02;36.40;99.90
2387;DHT22;49473;50.772;8.768;2023-06-22T12:01:29;36.90;98.40
2387;DHT22;49473;50.772;8.768;2023-06-22T12:03:55;37.10;96.60
2387;DHT22;49473;50.772;8.768;2023-06-22T12:06:23;36.60;95.80
2387;DHT22;49473;50.772;8.768;2023-06-22T12:08:50;36.30;96.60
2387;DHT22;49473;50.772;8.768;2023-06-22T12:11:17;36.50;96.80
2387;DHT22;49473;50.772;8.768;2023-06-22T12:13:43;36.30;96.30
2387;DHT22;49473;50.772;8.768;2023-06-22T12:16:10;36.90;95.60
2387;DHT22;49473;50.772;8.768;2023-06-22T12:18:37;38.50;93.60
2387;DHT22;49473;50.772;8.768;2023-06-22T12:21:04;38.80;93.50
2387;DHT22;49473;50.772;8.768;2023-06-22T12:23:32;36.70;93.00
2387;DHT22;49473;50.772;8.768;2023-06-22T12:25:59;36.20;93.90
2387;DHT22;49473;50.772;8.768;2023-06-22T12:28:27;36.80;94.50
2387;DHT22;49473;50.772;8.768;2023-06-22T12:30:53;37.30;93.90
2387;DHT22;49473;50.772;8.768;2023-06-22T12:33:20;37.70;92.50
2387;DHT22;49473;50.772;8.768;2023-06-22T12:35:47;37.90;93.40
2387;DHT22;49473;50.772;8.768;2023-06-22T12:38:14;38.50;91.80
2387;DHT22;49473;50.772;8.768;2023-06-22T12:40:42;39.20;91.30
2387;DHT22;49473;50.772;8.768;2023-06-22T12:43:09;38.30;89.00
2387;DHT22;49473;50.772;8.768;2023-06-22T12:45:35;36.90;90.30
2387;DHT22;49473;50.772;8.768;2023-06-22T12:48:02;35.80;91.70
2387;DHT22;49473;50.772;8.768;2023-06-22T12:50:29;35.50;93.40
2387;DHT22;49473;50.772;8.768;2023-06-22T12:52:56;35.30;92.40
2387;DHT22;49473;50.772;8.768;2023-06-22T12:55:23;35.80;92.50
2387;DHT22;49473;50.772;8.768;2023-06-22T12:57:51;35.50;92.40
2387;DHT22;49473;50.772;8.768;2023-06-22T13:00:18;35.50;93.20
2387;DHT22;49473;50.772;8.768;2023-06-22T13:02:45;36.20;93.40
2387;DHT22;49473;50.772;8.768;2023-06-22T13:05:12;36.00;91.30
2387;DHT22;49473;50.772;8.768;2023-06-22T13:07:38;34.70;92.70
2387;DHT22;49473;50.772;8.768;2023-06-22T13:10:06;33.90;92.40
2387;DHT22;49473;50.772;8.768;2023-06-22T13:12:33;34.00;92.80
2387;DHT22;49473;50.772;8.768;2023-06-22T13:15:01;34.20;92.40
2387;DHT22;49473;50.772;8.768;2023-06-22T13:17:28;34.10;91.90
2387;DHT22;49473;50.772;8.768;2023-06-22T13:19:55;34.60;92.80
2387;DHT22;49473;50.772;8.768;2023-06-22T13:22:27;35.10;92.10
2387;DHT22;49473;50.772;8.768;2023-06-22T13:24:54;35.40;91.10
2387;DHT22;49473;50.772;8.768;2023-06-22T13:27:21;35.30;89.10
2387;DHT22;49473;50.772;8.768;2023-06-22T13:29:48;35.00;90.70
2387;DHT22;49473;50.772;8.768;2023-06-22T13:32:16;35.10;90.50
2387;DHT22;49473;50.772;8.768;2023-06-22T13:34:43;35.10;89.40
2387;DHT22;49473;50.772;8.768;2023-06-22T13:37:10;35.20;89.10
2387;DHT22;49473;50.772;8.768;2023-06-22T13:39:37;35.30;89.20
2387;DHT22;49473;50.772;8.768;2023-06-22T13:42:05;35.00;90.30
2387;DHT22;49473;50.772;8.768;2023-06-22T13:44:32;34.90;88.90
2387;DHT22;49473;50.772;8.768;2023-06-22T13:46:59;34.90;90.20
2387;DHT22;49473;50.772;8.768;2023-06-22T13:49:27;35.10;90.00
2387;DHT22;49473;50.772;8.768;2023-06-22T13:51:55;35.40;89.00
2387;DHT22;49473;50.772;8.768;2023-06-22T13:54:21;35.50;87.70
2387;DHT22;49473;50.772;8.768;2023-06-22T13:56:48;35.00;89.40
2387;DHT22;49473;50.772;8.768;2023-06-22T13:59:15;35.20;90.00
2387;DHT22;49473;50.772;8.768;2023-06-22T14:01:42;35.50;90.80
2387;DHT22;49473;50.772;8.768;2023-06-22T14:04:08;35.40;90.00
2387;DHT22;49473;50.772;8.768;2023-06-22T14:06:37;35.00;88.30
2387;DHT22;49473;50.772;8.768;2023-06-22T14:09:04;34.40;91.00
2387;DHT22;49473;50.772;8.768;2023-06-22T14:11:30;34.30;91.30
2387;DHT22;49473;50.772;8.768;2023-06-22T14:13:57;34.10;91.30
2387;DHT22;49473;50.772;8.768;2023-06-22T14:16:24;34.20;91.90
2387;DHT22;49473;50.772;8.768;2023-06-22T14:18:51;34.20;91.20
2387;DHT22;49473;50.772;8.768;2023-06-22T14:21:17;34.50;92.20
2387;DHT22;49473;50.772;8.768;2023-06-22T14:23:45;34.50;92.20
2387;DHT22;49473;50.772;8.768;2023-06-22T14:26:15;34.40;91.70
2387;DHT22;49473;50.772;8.768;2023-06-22T14:28:43;34.40;92.20
2387;DHT22;49473;50.772;8.768;2023-06-22T14:31:12;34.50;92.00
2387;DHT22;49473;50.772;8.768;2023-06-22T14:33:39;34.50;91.80
2387;DHT22;49473;50.772;8.768;2023-06-22T14:36:06;34.60;91.90
2387;DHT22;49473;50.772;8.768;2023-06-22T14:38:32;34.50;91.80
2387;DHT22;49473;50.772;8.768;2023-06-22T14:41:00;34.40;92.30
2387;DHT22;49473;50.772;8.768;2023-06-22T14:43:27;34.10;92.20
2387;DHT22;49473;50.772;8.768;2023-06-22T14:45:54;34.00;93.60
2387;DHT22;49473;50.772;8.768;2023-06-22T14:48:21;33.70;93.60
2387;DHT22;49473;50.772;8.768;2023-06-22T14:50:48;33.50;93.90
2387;DHT22;49473;50.772;8.768;2023-06-22T14:53:15;33.20;93.50
2387;DHT22;49473;50.772;8.768;2023-06-22T14:55:41;32.90;94.30
2387;DHT22;49473;50.772;8.768;2023-06-22T14:58:10;32.60;94.60
2387;DHT22;49473;50.772;8.768;2023-06-22T15:00:36;32.00;95.40
2387;DHT22;49473;50.772;8.768;2023-06-22T15:03:04;31.60;97.90
2387;DHT22;49473;50.772;8.768;2023-06-22T15:05:33;31.20;98.70
2387;DHT22;49473;50.772;8.768;2023-06-22T15:07:59;30.90;99.90
2387;DHT22;49473;50.772;8.768;2023-06-22T15:10:26;30.60;99.90
2387;DHT22;49473;50.772;8.768;2023-06-22T15:12:53;30.40;99.90
2387;DHT22;49473;50.772;8.768;2023-06-22T15:15:21;30.40;99.90
2387;DHT22;49473;50.772;8.768;2023-06-22T15:17:47;30.20;99.90
2387;DHT22;49473;50.772;8.768;2023-06-22T15:20:14;30.10;99.90
2387;DHT22;49473;50.772;8.768;2023-06-22T15:22:41;30.10;99.90
2387;DHT22;49473;50.772;8.768;2023-06-22T15:25:08;30.20;99.90
2387;DHT22;49473;50.772;8.768;2023-06-22T15:27:36;30.20;99.90
2387;DHT22;49473;50.772;8.768;2023-06-22T15:30:03;30.10;99.90
2387;DHT22;49473;50.772;8.768;2023-06-22T15:32:31;29.70;99.90
2387;DHT22;49473;50.772;8.768;2023-06-22T15:34:58;29.30;99.90
2387;DHT22;49473;50.772;8.768;2023-06-22T15:37:25;28.90;99.90
2387;DHT22;49473;50.772;8.768;2023-06-22T15:39:52;28.80;99.90
2387;DHT22;49473;50.772;8.768;2023-06-22T15:42:18;28.70;99.90
2387;DHT22;49473;50.772;8.768;2023-06-22T15:44:45;28.70;99.90
2387;DHT22;49473;50.772;8.768;2023-06-22T15:47:12;28.60;99.90